KBRY/BRY METAR and TAF weather

Enter ICAO airport designator
Station Type Date Time Source
KBRY METAR 2019/08/24 09:35 UTC NOAA

KBRY 240935Z AUTO 05004KT 10SM CLR 15/12 A3013 RMK AO1


Station Type Date Time Source
KBRY Decoded METAR 2019/08/24 09:35 UTC NOAA

Station name not available
Aug 24, 2019 - 05:35 AM EDT / 2019.08.24 0935 UTC
Wind: from the NE (050 degrees) at 5 MPH (4 KT):0
Visibility: 10 mile(s):0
Sky conditions: clear
Temperature: 59 F (15 C)
Dew Point: 53 F (12 C)
Relative Humidity: 82%
Pressure (altimeter): 30.13 in. Hg (1020 hPa)
ob: KBRY 240935Z AUTO 05004KT 10SM CLR 15/12 A3013 RMK AO1
cycle: 9

Station Type Date Time Source
KBRY TAF UTC NOAA

Error!

Example: see airport list